sensor_id;sensor_type;location;lat;lon;timestamp;P1;durP1;ratioP1;P2;durP2;ratioP2
19396;SDS011;9834;48.076;11.878;2024-02-14T00:00:57;3.37;;;1.00;;
19396;SDS011;9834;48.076;11.878;2024-02-14T00:03:24;1.60;;;0.90;;
19396;SDS011;9834;48.076;11.878;2024-02-14T00:05:55;1.27;;;1.00;;
19396;SDS011;9834;48.076;11.878;2024-02-14T00:08:24;1.30;;;1.00;;
19396;SDS011;9834;48.076;11.878;2024-02-14T00:10:51;0.90;;;0.53;;
19396;SDS011;9834;48.076;11.878;2024-02-14T00:13:19;3.80;;;0.90;;
19396;SDS011;9834;48.076;11.878;2024-02-14T00:15:47;0.90;;;0.80;;
19396;SDS011;9834;48.076;11.878;2024-02-14T00:18:16;2.10;;;1.70;;
19396;SDS011;9834;48.076;11.878;2024-02-14T00:20:44;2.13;;;1.13;;
19396;SDS011;9834;48.076;11.878;2024-02-14T00:23:11;0.80;;;0.80;;
19396;SDS011;9834;48.076;11.878;2024-02-14T00:25:40;1.80;;;1.40;;
19396;SDS011;9834;48.076;11.878;2024-02-14T00:28:08;2.67;;;1.17;;
19396;SDS011;9834;48.076;11.878;2024-02-14T00:30:37;2.83;;;0.90;;
19396;SDS011;9834;48.076;11.878;2024-02-14T00:33:04;1.73;;;0.77;;
19396;SDS011;9834;48.076;11.878;2024-02-14T00:35:32;1.40;;;0.87;;
19396;SDS011;9834;48.076;11.878;2024-02-14T00:37:59;1.53;;;0.97;;
19396;SDS011;9834;48.076;11.878;2024-02-14T00:40:26;1.97;;;1.10;;
19396;SDS011;9834;48.076;11.878;2024-02-14T00:42:55;1.20;;;0.90;;
19396;SDS011;9834;48.076;11.878;2024-02-14T00:45:26;1.70;;;0.70;;
19396;SDS011;9834;48.076;11.878;2024-02-14T00:47:53;2.53;;;0.80;;
19396;SDS011;9834;48.076;11.878;2024-02-14T00:50:22;3.43;;;1.03;;
19396;SDS011;9834;48.076;11.878;2024-02-14T00:52:50;3.37;;;1.17;;
19396;SDS011;9834;48.076;11.878;2024-02-14T00:55:17;1.27;;;1.03;;
19396;SDS011;9834;48.076;11.878;2024-02-14T00:57:48;3.27;;;1.37;;
19396;SDS011;9834;48.076;11.878;2024-02-14T01:00:16;2.23;;;1.17;;
19396;SDS011;9834;48.076;11.878;2024-02-14T01:02:43;1.00;;;0.90;;
19396;SDS011;9834;48.076;11.878;2024-02-14T01:05:14;1.73;;;0.97;;
19396;SDS011;9834;48.076;11.878;2024-02-14T01:07:43;7.13;;;1.37;;
19396;SDS011;9834;48.076;11.878;2024-02-14T01:10:11;1.77;;;0.77;;
19396;SDS011;9834;48.076;11.878;2024-02-14T01:12:39;1.33;;;0.93;;
19396;SDS011;9834;48.076;11.878;2024-02-14T01:15:06;2.00;;;1.20;;
19396;SDS011;9834;48.076;11.878;2024-02-14T01:17:36;1.40;;;1.13;;
19396;SDS011;9834;48.076;11.878;2024-02-14T01:20:04;1.23;;;0.80;;
19396;SDS011;9834;48.076;11.878;2024-02-14T01:22:34;1.87;;;1.07;;
19396;SDS011;9834;48.076;11.878;2024-02-14T01:25:01;1.70;;;0.90;;
19396;SDS011;9834;48.076;11.878;2024-02-14T01:27:31;1.17;;;0.87;;
19396;SDS011;9834;48.076;11.878;2024-02-14T01:30:01;3.27;;;0.87;;
19396;SDS011;9834;48.076;11.878;2024-02-14T01:32:30;2.83;;;0.93;;
19396;SDS011;9834;48.076;11.878;2024-02-14T01:35:00;5.07;;;1.40;;
19396;SDS011;9834;48.076;11.878;2024-02-14T01:37:27;1.57;;;1.30;;
19396;SDS011;9834;48.076;11.878;2024-02-14T01:39:55;4.30;;;1.33;;
19396;SDS011;9834;48.076;11.878;2024-02-14T01:42:22;2.40;;;1.43;;
19396;SDS011;9834;48.076;11.878;2024-02-14T01:44:49;1.70;;;1.30;;
19396;SDS011;9834;48.076;11.878;2024-02-14T01:47:16;1.00;;;0.93;;
19396;SDS011;9834;48.076;11.878;2024-02-14T01:49:44;1.87;;;1.27;;
19396;SDS011;9834;48.076;11.878;2024-02-14T01:52:13;1.70;;;1.10;;
19396;SDS011;9834;48.076;11.878;2024-02-14T01:54:41;1.63;;;1.07;;
19396;SDS011;9834;48.076;11.878;2024-02-14T01:57:09;0.93;;;0.90;;
19396;SDS011;9834;48.076;11.878;2024-02-14T01:59:39;1.83;;;1.13;;
19396;SDS011;9834;48.076;11.878;2024-02-14T02:02:10;2.00;;;1.33;;
19396;SDS011;9834;48.076;11.878;2024-02-14T02:04:38;1.40;;;1.27;;
19396;SDS011;9834;48.076;11.878;2024-02-14T02:07:07;3.93;;;1.13;;
19396;SDS011;9834;48.076;11.878;2024-02-14T02:09:35;1.53;;;0.90;;
19396;SDS011;9834;48.076;11.878;2024-02-14T02:12:02;1.77;;;0.90;;
19396;SDS011;9834;48.076;11.878;2024-02-14T02:14:33;1.03;;;0.60;;
19396;SDS011;9834;48.076;11.878;2024-02-14T02:17:01;1.20;;;1.10;;
19396;SDS011;9834;48.076;11.878;2024-02-14T02:19:33;1.60;;;0.83;;
19396;SDS011;9834;48.076;11.878;2024-02-14T02:22:01;1.77;;;1.13;;
19396;SDS011;9834;48.076;11.878;2024-02-14T02:24:31;0.87;;;0.83;;
19396;SDS011;9834;48.076;11.878;2024-02-14T02:26:59;1.67;;;1.30;;
19396;SDS011;9834;48.076;11.878;2024-02-14T02:29:26;0.60;;;0.60;;
19396;SDS011;9834;48.076;11.878;2024-02-14T02:31:54;2.10;;;1.03;;
19396;SDS011;9834;48.076;11.878;2024-02-14T02:34:22;0.80;;;0.73;;
19396;SDS011;9834;48.076;11.878;2024-02-14T02:36:52;1.37;;;0.87;;
19396;SDS011;9834;48.076;11.878;2024-02-14T02:39:19;1.90;;;0.90;;
19396;SDS011;9834;48.076;11.878;2024-02-14T02:41:52;1.60;;;0.70;;
19396;SDS011;9834;48.076;11.878;2024-02-14T02:44:22;2.07;;;1.40;;
19396;SDS011;9834;48.076;11.878;2024-02-14T02:46:49;1.63;;;1.17;;
19396;SDS011;9834;48.076;11.878;2024-02-14T02:49:16;1.60;;;1.00;;
19396;SDS011;9834;48.076;11.878;2024-02-14T02:51:46;4.10;;;1.30;;
19396;SDS011;9834;48.076;11.878;2024-02-14T02:54:14;3.90;;;1.30;;
19396;SDS011;9834;48.076;11.878;2024-02-14T02:56:44;1.33;;;1.10;;
19396;SDS011;9834;48.076;11.878;2024-02-14T02:59:14;1.20;;;0.73;;
19396;SDS011;9834;48.076;11.878;2024-02-14T03:01:41;1.17;;;1.07;;
19396;SDS011;9834;48.076;11.878;2024-02-14T03:04:09;1.17;;;0.80;;
19396;SDS011;9834;48.076;11.878;2024-02-14T03:06:38;1.07;;;0.70;;
19396;SDS011;9834;48.076;11.878;2024-02-14T03:09:05;0.90;;;0.90;;
19396;SDS011;9834;48.076;11.878;2024-02-14T03:11:32;1.70;;;1.20;;
19396;SDS011;9834;48.076;11.878;2024-02-14T03:14:00;1.50;;;1.33;;
19396;SDS011;9834;48.076;11.878;2024-02-14T03:16:29;1.80;;;1.10;;
19396;SDS011;9834;48.076;11.878;2024-02-14T03:18:57;2.17;;;0.90;;
19396;SDS011;9834;48.076;11.878;2024-02-14T03:21:24;2.53;;;1.13;;
19396;SDS011;9834;48.076;11.878;2024-02-14T03:23:53;1.33;;;0.60;;
19396;SDS011;9834;48.076;11.878;2024-02-14T03:26:20;1.23;;;1.10;;
19396;SDS011;9834;48.076;11.878;2024-02-14T03:28:48;1.83;;;1.07;;
19396;SDS011;9834;48.076;11.878;2024-02-14T03:31:18;1.10;;;1.00;;
19396;SDS011;9834;48.076;11.878;2024-02-14T03:33:49;4.33;;;1.47;;
19396;SDS011;9834;48.076;11.878;2024-02-14T03:36:20;1.10;;;0.83;;
19396;SDS011;9834;48.076;11.878;2024-02-14T03:38:50;2.00;;;1.10;;
19396;SDS011;9834;48.076;11.878;2024-02-14T03:41:17;2.53;;;1.10;;
19396;SDS011;9834;48.076;11.878;2024-02-14T03:43:45;0.97;;;0.60;;
19396;SDS011;9834;48.076;11.878;2024-02-14T03:46:12;1.37;;;1.27;;
19396;SDS011;9834;48.076;11.878;2024-02-14T03:48:39;1.60;;;1.00;;
19396;SDS011;9834;48.076;11.878;2024-02-14T03:51:09;0.73;;;0.67;;
19396;SDS011;9834;48.076;11.878;2024-02-14T03:53:38;2.90;;;1.30;;
19396;SDS011;9834;48.076;11.878;2024-02-14T03:56:05;2.40;;;0.97;;
19396;SDS011;9834;48.076;11.878;2024-02-14T03:58:34;3.53;;;1.43;;
19396;SDS011;9834;48.076;11.878;2024-02-14T04:01:02;1.30;;;1.20;;
19396;SDS011;9834;48.076;11.878;2024-02-14T04:03:30;1.50;;;1.40;;
19396;SDS011;9834;48.076;11.878;2024-02-14T04:05:59;2.00;;;1.53;;
19396;SDS011;9834;48.076;11.878;2024-02-14T04:08:28;1.63;;;1.40;;
19396;SDS011;9834;48.076;11.878;2024-02-14T04:10:55;1.17;;;1.10;;
19396;SDS011;9834;48.076;11.878;2024-02-14T04:13:22;1.30;;;1.20;;
19396;SDS011;9834;48.076;11.878;2024-02-14T04:15:49;4.40;;;1.30;;
19396;SDS011;9834;48.076;11.878;2024-02-14T04:18:16;1.50;;;1.30;;
19396;SDS011;9834;48.076;11.878;2024-02-14T04:20:52;3.53;;;1.43;;
19396;SDS011;9834;48.076;11.878;2024-02-14T04:23:19;2.57;;;1.33;;
19396;SDS011;9834;48.076;11.878;2024-02-14T04:25:49;2.30;;;1.33;;
19396;SDS011;9834;48.076;11.878;2024-02-14T04:28:17;1.47;;;1.10;;
19396;SDS011;9834;48.076;11.878;2024-02-14T04:30:45;1.53;;;1.10;;
19396;SDS011;9834;48.076;11.878;2024-02-14T04:33:13;4.47;;;0.93;;
19396;SDS011;9834;48.076;11.878;2024-02-14T04:35:41;3.57;;;1.70;;
19396;SDS011;9834;48.076;11.878;2024-02-14T04:38:08;2.57;;;1.50;;
19396;SDS011;9834;48.076;11.878;2024-02-14T04:40:39;1.90;;;1.07;;
19396;SDS011;9834;48.076;11.878;2024-02-14T04:43:08;3.17;;;1.23;;
19396;SDS011;9834;48.076;11.878;2024-02-14T04:45:37;1.07;;;0.83;;
19396;SDS011;9834;48.076;11.878;2024-02-14T04:48:05;2.83;;;1.27;;
19396;SDS011;9834;48.076;11.878;2024-02-14T04:50:34;1.47;;;0.90;;
19396;SDS011;9834;48.076;11.878;2024-02-14T04:53:05;2.23;;;1.50;;
19396;SDS011;9834;48.076;11.878;2024-02-14T04:56:25;1.90;;;1.23;;
19396;SDS011;9834;48.076;11.878;2024-02-14T04:59:25;0.97;;;0.97;;
19396;SDS011;9834;48.076;11.878;2024-02-14T05:01:53;1.70;;;1.20;;
19396;SDS011;9834;48.076;11.878;2024-02-14T05:04:21;3.33;;;1.03;;
19396;SDS011;9834;48.076;11.878;2024-02-14T05:06:50;1.43;;;1.20;;
19396;SDS011;9834;48.076;11.878;2024-02-14T05:09:17;3.07;;;1.70;;
19396;SDS011;9834;48.076;11.878;2024-02-14T05:11:44;1.40;;;1.30;;
19396;SDS011;9834;48.076;11.878;2024-02-14T05:14:12;1.37;;;1.27;;
19396;SDS011;9834;48.076;11.878;2024-02-14T05:16:44;1.17;;;1.07;;
19396;SDS011;9834;48.076;11.878;2024-02-14T05:19:12;1.43;;;1.33;;
19396;SDS011;9834;48.076;11.878;2024-02-14T05:21:42;2.67;;;1.57;;
19396;SDS011;9834;48.076;11.878;2024-02-14T05:24:09;1.83;;;0.70;;
19396;SDS011;9834;48.076;11.878;2024-02-14T05:26:36;1.20;;;1.10;;
19396;SDS011;9834;48.076;11.878;2024-02-14T05:29:05;2.13;;;1.40;;
19396;SDS011;9834;48.076;11.878;2024-02-14T05:31:44;0.90;;;0.90;;
19396;SDS011;9834;48.076;11.878;2024-02-14T05:34:14;1.20;;;0.87;;
19396;SDS011;9834;48.076;11.878;2024-02-14T05:36:52;1.10;;;1.00;;
19396;SDS011;9834;48.076;11.878;2024-02-14T05:39:21;1.20;;;1.10;;
19396;SDS011;9834;48.076;11.878;2024-02-14T05:41:49;1.67;;;1.27;;
19396;SDS011;9834;48.076;11.878;2024-02-14T05:44:16;0.70;;;0.70;;
19396;SDS011;9834;48.076;11.878;2024-02-14T05:46:45;1.00;;;0.80;;
19396;SDS011;9834;48.076;11.878;2024-02-14T05:49:13;1.13;;;0.90;;
19396;SDS011;9834;48.076;11.878;2024-02-14T05:51:40;1.27;;;0.90;;
19396;SDS011;9834;48.076;11.878;2024-02-14T05:54:08;1.37;;;1.13;;
19396;SDS011;9834;48.076;11.878;2024-02-14T05:56:36;2.10;;;1.03;;
19396;SDS011;9834;48.076;11.878;2024-02-14T05:59:05;1.40;;;0.97;;
19396;SDS011;9834;48.076;11.878;2024-02-14T06:01:33;2.20;;;1.57;;
19396;SDS011;9834;48.076;11.878;2024-02-14T06:06:45;1.00;;;1.00;;
19396;SDS011;9834;48.076;11.878;2024-02-14T06:09:12;2.13;;;1.30;;
19396;SDS011;9834;48.076;11.878;2024-02-14T06:11:45;2.03;;;1.40;;
19396;SDS011;9834;48.076;11.878;2024-02-14T06:14:12;1.90;;;0.90;;
19396;SDS011;9834;48.076;11.878;2024-02-14T06:16:40;1.57;;;1.03;;
19396;SDS011;9834;48.076;11.878;2024-02-14T06:19:07;0.83;;;0.83;;
19396;SDS011;9834;48.076;11.878;2024-02-14T06:21:36;1.00;;;0.97;;
19396;SDS011;9834;48.076;11.878;2024-02-14T06:24:04;1.47;;;1.20;;
19396;SDS011;9834;48.076;11.878;2024-02-14T06:26:32;1.90;;;0.90;;
19396;SDS011;9834;48.076;11.878;2024-02-14T06:29:01;2.17;;;1.13;;
19396;SDS011;9834;48.076;11.878;2024-02-14T06:31:29;0.73;;;0.70;;
19396;SDS011;9834;48.076;11.878;2024-02-14T06:33:56;0.70;;;0.70;;
19396;SDS011;9834;48.076;11.878;2024-02-14T06:36:25;0.63;;;0.63;;
19396;SDS011;9834;48.076;11.878;2024-02-14T06:38:56;1.60;;;1.50;;
19396;SDS011;9834;48.076;11.878;2024-02-14T06:41:23;1.83;;;1.33;;
19396;SDS011;9834;48.076;11.878;2024-02-14T06:43:51;2.33;;;1.40;;
19396;SDS011;9834;48.076;11.878;2024-02-14T06:46:23;2.63;;;1.23;;
19396;SDS011;9834;48.076;11.878;2024-02-14T06:48:56;2.97;;;1.17;;
19396;SDS011;9834;48.076;11.878;2024-02-14T06:51:23;1.80;;;1.27;;
19396;SDS011;9834;48.076;11.878;2024-02-14T06:53:52;1.47;;;1.37;;
19396;SDS011;9834;48.076;11.878;2024-02-14T06:56:20;3.33;;;2.00;;
19396;SDS011;9834;48.076;11.878;2024-02-14T06:58:51;1.13;;;1.00;;
19396;SDS011;9834;48.076;11.878;2024-02-14T07:01:28;2.10;;;1.47;;
19396;SDS011;9834;48.076;11.878;2024-02-14T07:03:55;2.30;;;1.60;;
19396;SDS011;9834;48.076;11.878;2024-02-14T07:06:23;4.77;;;1.03;;
19396;SDS011;9834;48.076;11.878;2024-02-14T07:08:50;1.60;;;1.37;;
19396;SDS011;9834;48.076;11.878;2024-02-14T07:11:18;2.17;;;1.50;;
19396;SDS011;9834;48.076;11.878;2024-02-14T07:13:47;2.67;;;1.13;;
19396;SDS011;9834;48.076;11.878;2024-02-14T07:16:18;1.90;;;1.50;;
19396;SDS011;9834;48.076;11.878;2024-02-14T07:18:56;2.03;;;1.50;;
19396;SDS011;9834;48.076;11.878;2024-02-14T07:21:26;3.57;;;1.40;;
19396;SDS011;9834;48.076;11.878;2024-02-14T07:23:54;1.17;;;0.97;;
19396;SDS011;9834;48.076;11.878;2024-02-14T07:26:25;1.93;;;1.60;;
19396;SDS011;9834;48.076;11.878;2024-02-14T07:28:55;1.47;;;1.03;;
19396;SDS011;9834;48.076;11.878;2024-02-14T07:31:22;1.70;;;1.17;;
19396;SDS011;9834;48.076;11.878;2024-02-14T07:33:50;4.13;;;1.20;;
19396;SDS011;9834;48.076;11.878;2024-02-14T07:38:47;3.83;;;1.17;;
19396;SDS011;9834;48.076;11.878;2024-02-14T07:41:15;1.93;;;1.00;;
19396;SDS011;9834;48.076;11.878;2024-02-14T07:43:50;2.10;;;1.43;;
19396;SDS011;9834;48.076;11.878;2024-02-14T07:46:20;2.47;;;1.67;;
19396;SDS011;9834;48.076;11.878;2024-02-14T07:48:54;2.40;;;1.50;;
19396;SDS011;9834;48.076;11.878;2024-02-14T07:51:28;3.63;;;1.47;;
19396;SDS011;9834;48.076;11.878;2024-02-14T07:54:01;2.70;;;1.80;;
19396;SDS011;9834;48.076;11.878;2024-02-14T07:56:32;1.80;;;1.40;;
19396;SDS011;9834;48.076;11.878;2024-02-14T07:59:03;1.50;;;1.17;;
19396;SDS011;9834;48.076;11.878;2024-02-14T08:01:31;2.30;;;1.60;;
19396;SDS011;9834;48.076;11.878;2024-02-14T08:03:59;1.87;;;1.30;;
19396;SDS011;9834;48.076;11.878;2024-02-14T08:06:26;1.93;;;1.73;;
19396;SDS011;9834;48.076;11.878;2024-02-14T08:08:54;2.27;;;1.53;;
19396;SDS011;9834;48.076;11.878;2024-02-14T08:11:25;2.83;;;1.60;;
19396;SDS011;9834;48.076;11.878;2024-02-14T08:13:58;2.00;;;1.27;;
19396;SDS011;9834;48.076;11.878;2024-02-14T08:16:27;1.00;;;0.83;;
19396;SDS011;9834;48.076;11.878;2024-02-14T08:18:54;1.63;;;1.10;;
19396;SDS011;9834;48.076;11.878;2024-02-14T08:21:24;1.83;;;0.93;;
19396;SDS011;9834;48.076;11.878;2024-02-14T08:23:52;1.80;;;1.00;;
19396;SDS011;9834;48.076;11.878;2024-02-14T08:26:27;1.17;;;1.00;;
19396;SDS011;9834;48.076;11.878;2024-02-14T08:28:54;1.70;;;0.83;;
19396;SDS011;9834;48.076;11.878;2024-02-14T08:31:23;1.43;;;1.10;;
19396;SDS011;9834;48.076;11.878;2024-02-14T08:33:52;1.40;;;1.07;;
19396;SDS011;9834;48.076;11.878;2024-02-14T08:36:27;1.50;;;0.83;;
19396;SDS011;9834;48.076;11.878;2024-02-14T08:38:55;0.90;;;0.77;;
19396;SDS011;9834;48.076;11.878;2024-02-14T08:41:22;0.57;;;0.57;;
19396;SDS011;9834;48.076;11.878;2024-02-14T08:43:50;1.07;;;0.70;;
19396;SDS011;9834;48.076;11.878;2024-02-14T08:46:20;1.03;;;0.60;;
19396;SDS011;9834;48.076;11.878;2024-02-14T08:48:54;1.03;;;0.70;;
19396;SDS011;9834;48.076;11.878;2024-02-14T08:51:25;1.37;;;0.57;;
19396;SDS011;9834;48.076;11.878;2024-02-14T08:53:52;0.73;;;0.73;;
19396;SDS011;9834;48.076;11.878;2024-02-14T08:56:22;1.07;;;0.63;;
19396;SDS011;9834;48.076;11.878;2024-02-14T08:58:49;0.60;;;0.30;;
19396;SDS011;9834;48.076;11.878;2024-02-14T09:01:17;1.37;;;0.60;;
19396;SDS011;9834;48.076;11.878;2024-02-14T09:03:49;0.30;;;0.30;;
19396;SDS011;9834;48.076;11.878;2024-02-14T09:06:18;1.83;;;0.60;;
19396;SDS011;9834;48.076;11.878;2024-02-14T09:08:51;0.30;;;0.30;;
19396;SDS011;9834;48.076;11.878;2024-02-14T09:11:20;0.37;;;0.37;;
19396;SDS011;9834;48.076;11.878;2024-02-14T09:13:51;0.63;;;0.40;;
19396;SDS011;9834;48.076;11.878;2024-02-14T09:16:29;0.67;;;0.50;;
19396;SDS011;9834;48.076;11.878;2024-02-14T09:18:57;0.63;;;0.63;;
19396;SDS011;9834;48.076;11.878;2024-02-14T09:21:26;1.33;;;0.60;;
19396;SDS011;9834;48.076;11.878;2024-02-14T09:23:56;0.47;;;0.47;;
19396;SDS011;9834;48.076;11.878;2024-02-14T09:26:26;0.83;;;0.63;;
19396;SDS011;9834;48.076;11.878;2024-02-14T09:29:00;1.40;;;0.90;;
19396;SDS011;9834;48.076;11.878;2024-02-14T09:31:30;0.47;;;0.47;;
19396;SDS011;9834;48.076;11.878;2024-02-14T09:33:58;0.87;;;0.67;;
19396;SDS011;9834;48.076;11.878;2024-02-14T09:36:27;1.60;;;0.90;;
19396;SDS011;9834;48.076;11.878;2024-02-14T09:38:58;0.87;;;0.50;;
19396;SDS011;9834;48.076;11.878;2024-02-14T09:41:26;0.60;;;0.57;;
19396;SDS011;9834;48.076;11.878;2024-02-14T09:44:00;0.40;;;0.40;;
19396;SDS011;9834;48.076;11.878;2024-02-14T09:46:32;0.90;;;0.60;;
19396;SDS011;9834;48.076;11.878;2024-02-14T09:49:05;0.70;;;0.70;;
19396;SDS011;9834;48.076;11.878;2024-02-14T09:54:22;1.50;;;0.67;;
19396;SDS011;9834;48.076;11.878;2024-02-14T09:56:53;0.67;;;0.50;;
19396;SDS011;9834;48.076;11.878;2024-02-14T09:59:23;2.33;;;0.30;;
19396;SDS011;9834;48.076;11.878;2024-02-14T10:01:53;0.70;;;0.60;;
19396;SDS011;9834;48.076;11.878;2024-02-14T10:04:24;0.40;;;0.40;;
19396;SDS011;9834;48.076;11.878;2024-02-14T10:06:53;1.43;;;0.60;;
19396;SDS011;9834;48.076;11.878;2024-02-14T10:09:31;0.67;;;0.67;;
19396;SDS011;9834;48.076;11.878;2024-02-14T10:12:10;0.40;;;0.40;;
19396;SDS011;9834;48.076;11.878;2024-02-14T10:14:37;0.83;;;0.43;;
19396;SDS011;9834;48.076;11.878;2024-02-14T10:17:08;2.13;;;0.50;;
19396;SDS011;9834;48.076;11.878;2024-02-14T10:19:36;0.43;;;0.43;;
19396;SDS011;9834;48.076;11.878;2024-02-14T10:22:05;0.70;;;0.60;;
19396;SDS011;9834;48.076;11.878;2024-02-14T10:24:35;4.83;;;1.17;;
19396;SDS011;9834;48.076;11.878;2024-02-14T10:27:06;1.27;;;1.10;;
19396;SDS011;9834;48.076;11.878;2024-02-14T10:29:42;1.47;;;1.13;;
19396;SDS011;9834;48.076;11.878;2024-02-14T10:32:09;2.23;;;1.20;;
19396;SDS011;9834;48.076;11.878;2024-02-14T10:34:43;3.97;;;1.43;;
19396;SDS011;9834;48.076;11.878;2024-02-14T10:37:20;1.30;;;1.03;;
19396;SDS011;9834;48.076;11.878;2024-02-14T10:39:51;2.60;;;1.40;;
19396;SDS011;9834;48.076;11.878;2024-02-14T10:42:20;1.40;;;1.27;;
19396;SDS011;9834;48.076;11.878;2024-02-14T10:44:47;0.90;;;0.90;;
19396;SDS011;9834;48.076;11.878;2024-02-14T10:47:19;1.40;;;1.27;;
19396;SDS011;9834;48.076;11.878;2024-02-14T10:49:47;0.80;;;0.80;;
19396;SDS011;9834;48.076;11.878;2024-02-14T10:52:18;0.93;;;0.60;;
19396;SDS011;9834;48.076;11.878;2024-02-14T10:54:49;1.10;;;1.00;;
19396;SDS011;9834;48.076;11.878;2024-02-14T10:57:25;1.50;;;1.20;;
19396;SDS011;9834;48.076;11.878;2024-02-14T10:59:56;1.87;;;1.20;;
19396;SDS011;9834;48.076;11.878;2024-02-14T11:02:31;1.47;;;1.20;;
19396;SDS011;9834;48.076;11.878;2024-02-14T11:04:59;0.87;;;0.87;;
19396;SDS011;9834;48.076;11.878;2024-02-14T11:07:36;1.90;;;1.00;;
19396;SDS011;9834;48.076;11.878;2024-02-14T11:10:13;2.50;;;1.00;;
19396;SDS011;9834;48.076;11.878;2024-02-14T11:12:43;0.73;;;0.73;;
19396;SDS011;9834;48.076;11.878;2024-02-14T11:15:19;0.80;;;0.80;;
19396;SDS011;9834;48.076;11.878;2024-02-14T11:17:47;0.80;;;0.80;;
19396;SDS011;9834;48.076;11.878;2024-02-14T11:20:17;0.80;;;0.80;;
19396;SDS011;9834;48.076;11.878;2024-02-14T11:22:55;1.50;;;0.60;;
19396;SDS011;9834;48.076;11.878;2024-02-14T11:25:32;0.73;;;0.70;;
19396;SDS011;9834;48.076;11.878;2024-02-14T11:28:01;2.73;;;0.80;;
19396;SDS011;9834;48.076;11.878;2024-02-14T11:30:39;0.73;;;0.73;;
19396;SDS011;9834;48.076;11.878;2024-02-14T11:33:17;0.97;;;0.40;;
19396;SDS011;9834;48.076;11.878;2024-02-14T11:35:47;0.57;;;0.50;;
19396;SDS011;9834;48.076;11.878;2024-02-14T11:38:18;1.90;;;0.70;;
19396;SDS011;9834;48.076;11.878;2024-02-14T11:40:46;1.03;;;0.73;;
19396;SDS011;9834;48.076;11.878;2024-02-14T11:43:22;0.70;;;0.70;;
19396;SDS011;9834;48.076;11.878;2024-02-14T11:45:58;0.83;;;0.73;;
19396;SDS011;9834;48.076;11.878;2024-02-14T11:48:29;7.63;;;0.90;;
19396;SDS011;9834;48.076;11.878;2024-02-14T11:51:00;0.70;;;0.70;;
19396;SDS011;9834;48.076;11.878;2024-02-14T11:53:34;0.30;;;0.30;;
19396;SDS011;9834;48.076;11.878;2024-02-14T11:56:02;0.47;;;0.40;;
19396;SDS011;9834;48.076;11.878;2024-02-14T11:58:33;0.30;;;0.17;;
19396;SDS011;9834;48.076;11.878;2024-02-14T12:01:09;0.30;;;0.30;;
19396;SDS011;9834;48.076;11.878;2024-02-14T12:03:40;0.20;;;0.20;;
19396;SDS011;9834;48.076;11.878;2024-02-14T12:06:16;0.40;;;0.40;;
19396;SDS011;9834;48.076;11.878;2024-02-14T12:08:47;0.40;;;0.40;;
19396;SDS011;9834;48.076;11.878;2024-02-14T12:11:22;0.70;;;0.40;;
19396;SDS011;9834;48.076;11.878;2024-02-14T12:13:54;0.43;;;0.43;;
19396;SDS011;9834;48.076;11.878;2024-02-14T12:16:22;1.17;;;0.60;;
19396;SDS011;9834;48.076;11.878;2024-02-14T12:19:03;0.43;;;0.37;;
19396;SDS011;9834;48.076;11.878;2024-02-14T12:21:39;0.30;;;0.30;;
19396;SDS011;9834;48.076;11.878;2024-02-14T12:24:10;0.37;;;0.30;;
19396;SDS011;9834;48.076;11.878;2024-02-14T12:26:39;0.63;;;0.23;;
19396;SDS011;9834;48.076;11.878;2024-02-14T12:29:14;0.40;;;0.40;;
19396;SDS011;9834;48.076;11.878;2024-02-14T12:31:45;0.40;;;0.40;;
19396;SDS011;9834;48.076;11.878;2024-02-14T12:34:14;0.20;;;0.20;;
19396;SDS011;9834;48.076;11.878;2024-02-14T12:36:43;0.87;;;0.20;;
19396;SDS011;9834;48.076;11.878;2024-02-14T12:39:17;0.63;;;0.53;;
19396;SDS011;9834;48.076;11.878;2024-02-14T12:41:51;0.60;;;0.43;;
19396;SDS011;9834;48.076;11.878;2024-02-14T12:44:21;0.33;;;0.33;;
19396;SDS011;9834;48.076;11.878;2024-02-14T12:46:50;0.53;;;0.40;;
19396;SDS011;9834;48.076;11.878;2024-02-14T12:49:22;0.30;;;0.30;;
19396;SDS011;9834;48.076;11.878;2024-02-14T12:51:52;0.30;;;0.30;;
19396;SDS011;9834;48.076;11.878;2024-02-14T12:54:27;0.10;;;0.10;;
19396;SDS011;9834;48.076;11.878;2024-02-14T12:56:54;0.30;;;0.30;;
19396;SDS011;9834;48.076;11.878;2024-02-14T12:59:24;0.20;;;0.20;;
19396;SDS011;9834;48.076;11.878;2024-02-14T13:01:55;1.70;;;0.80;;
19396;SDS011;9834;48.076;11.878;2024-02-14T13:04:22;0.30;;;0.30;;
19396;SDS011;9834;48.076;11.878;2024-02-14T13:06:50;0.40;;;0.27;;
19396;SDS011;9834;48.076;11.878;2024-02-14T13:09:20;0.67;;;0.40;;
19396;SDS011;9834;48.076;11.878;2024-02-14T13:11:57;0.40;;;0.40;;
19396;SDS011;9834;48.076;11.878;2024-02-14T13:14:25;1.13;;;0.40;;
19396;SDS011;9834;48.076;11.878;2024-02-14T13:17:04;2.37;;;0.80;;
19396;SDS011;9834;48.076;11.878;2024-02-14T13:19:31;1.90;;;0.50;;
19396;SDS011;9834;48.076;11.878;2024-02-14T13:22:00;0.30;;;0.30;;
19396;SDS011;9834;48.076;11.878;2024-02-14T13:24:31;0.30;;;0.30;;
19396;SDS011;9834;48.076;11.878;2024-02-14T13:27:00;1.17;;;0.53;;
19396;SDS011;9834;48.076;11.878;2024-02-14T13:29:30;0.60;;;0.37;;
19396;SDS011;9834;48.076;11.878;2024-02-14T13:32:00;0.20;;;0.20;;
19396;SDS011;9834;48.076;11.878;2024-02-14T13:34:28;0.27;;;0.27;;
19396;SDS011;9834;48.076;11.878;2024-02-14T13:36:56;0.47;;;0.30;;
19396;SDS011;9834;48.076;11.878;2024-02-14T13:39:23;1.10;;;0.50;;
19396;SDS011;9834;48.076;11.878;2024-02-14T13:41:51;0.30;;;0.30;;
19396;SDS011;9834;48.076;11.878;2024-02-14T13:44:24;0.40;;;0.40;;
19396;SDS011;9834;48.076;11.878;2024-02-14T13:46:51;0.23;;;0.20;;
19396;SDS011;9834;48.076;11.878;2024-02-14T13:49:19;0.87;;;0.50;;
19396;SDS011;9834;48.076;11.878;2024-02-14T13:51:51;2.10;;;0.43;;
19396;SDS011;9834;48.076;11.878;2024-02-14T13:54:18;1.03;;;0.30;;
19396;SDS011;9834;48.076;11.878;2024-02-14T13:56:46;0.53;;;0.43;;
19396;SDS011;9834;48.076;11.878;2024-02-14T13:59:14;0.30;;;0.30;;
19396;SDS011;9834;48.076;11.878;2024-02-14T14:01:44;2.90;;;0.40;;
19396;SDS011;9834;48.076;11.878;2024-02-14T14:04:12;0.30;;;0.30;;
19396;SDS011;9834;48.076;11.878;2024-02-14T14:06:39;0.20;;;0.20;;
19396;SDS011;9834;48.076;11.878;2024-02-14T14:09:07;0.60;;;0.43;;
19396;SDS011;9834;48.076;11.878;2024-02-14T14:11:38;0.50;;;0.30;;
19396;SDS011;9834;48.076;11.878;2024-02-14T14:14:13;0.30;;;0.30;;
19396;SDS011;9834;48.076;11.878;2024-02-14T14:16:45;0.30;;;0.30;;
19396;SDS011;9834;48.076;11.878;2024-02-14T14:19:17;0.53;;;0.53;;
19396;SDS011;9834;48.076;11.878;2024-02-14T14:21:45;0.77;;;0.40;;
19396;SDS011;9834;48.076;11.878;2024-02-14T14:24:15;0.73;;;0.40;;
19396;SDS011;9834;48.076;11.878;2024-02-14T14:26:45;0.37;;;0.37;;
19396;SDS011;9834;48.076;11.878;2024-02-14T14:29:15;0.47;;;0.47;;
19396;SDS011;9834;48.076;11.878;2024-02-14T14:31:45;0.80;;;0.30;;
19396;SDS011;9834;48.076;11.878;2024-02-14T14:34:12;1.37;;;0.50;;
19396;SDS011;9834;48.076;11.878;2024-02-14T14:36:40;0.37;;;0.37;;
19396;SDS011;9834;48.076;11.878;2024-02-14T14:39:07;2.43;;;0.47;;
19396;SDS011;9834;48.076;11.878;2024-02-14T14:41:37;1.23;;;0.50;;
19396;SDS011;9834;48.076;11.878;2024-02-14T14:44:10;0.20;;;0.20;;
19396;SDS011;9834;48.076;11.878;2024-02-14T14:49:22;0.20;;;0.20;;
19396;SDS011;9834;48.076;11.878;2024-02-14T14:51:52;0.30;;;0.30;;
19396;SDS011;9834;48.076;11.878;2024-02-14T14:54:24;0.27;;;0.27;;
19396;SDS011;9834;48.076;11.878;2024-02-14T14:56:59;0.63;;;0.33;;
19396;SDS011;9834;48.076;11.878;2024-02-14T14:59:29;0.60;;;0.60;;
19396;SDS011;9834;48.076;11.878;2024-02-14T15:01:58;0.97;;;0.40;;
19396;SDS011;9834;48.076;11.878;2024-02-14T15:04:30;0.53;;;0.50;;
19396;SDS011;9834;48.076;11.878;2024-02-14T15:07:03;0.60;;;0.60;;
19396;SDS011;9834;48.076;11.878;2024-02-14T15:09:30;1.67;;;0.50;;
19396;SDS011;9834;48.076;11.878;2024-02-14T15:12:01;1.93;;;0.90;;
19396;SDS011;9834;48.076;11.878;2024-02-14T15:14:30;0.90;;;0.40;;